Time;durP1;ratioP1;P1;durP2;ratioP2;P2;SDS_P1;SDS_P2;PMS_P1;PMS_P2;Temp;Humidity;BMP_temperature;BMP_pressure;BME280_temperature;BME280_humidity;BME280_pressure;Samples;Min_cycle;Max_cycle;Signal;HPM_P1;HPM_P2
2023/06/14 00:01:28;;;;;;;8.02;2.75;;;16.60;71.00;;;;;;7386149;19;20014;-93
2023/06/14 00:03:55;;;;;;;7.72;3.58;;;16.50;71.40;;;;;;7385985;19;20045;-94
2023/06/14 00:06:24;;;;;;;7.65;3.00;;;16.40;71.70;;;;;;7379370;19;20018;-92
2023/06/14 00:08:57;;;;;;;6.55;2.70;;;16.40;71.90;;;;;;7382747;19;20022;-94
2023/06/14 00:11:29;;;;;;;4.80;2.47;;;16.40;72.10;;;;;;7382060;19;20023;-92
2023/06/14 00:13:56;;;;;;;5.25;2.22;;;16.30;72.60;;;;;;7384230;19;20798;-93
2023/06/14 00:16:23;;;;;;;6.38;2.35;;;16.30;72.90;;;;;;7383277;19;20026;-92
2023/06/14 00:18:53;;;;;;;10.80;2.45;;;16.30;73.60;;;;;;7385529;19;20090;-92
2023/06/14 00:21:22;;;;;;;6.43;3.10;;;16.20;73.90;;;;;;7386936;19;20495;-90
2023/06/14 00:23:49;;;;;;;6.28;2.95;;;16.20;74.90;;;;;;7386754;19;20037;-92
2023/06/14 00:26:17;;;;;;;7.15;4.05;;;16.10;75.90;;;;;;7385053;19;20508;-93
2023/06/14 00:28:45;;;;;;;6.88;2.20;;;16.10;76.70;;;;;;7383532;19;20019;-93
2023/06/14 00:31:12;;;;;;;7.60;2.53;;;16.10;78.00;;;;;;7385208;19;20033;-94
2023/06/14 00:33:45;;;;;;;5.45;2.03;;;16.00;78.70;;;;;;7386368;19;20022;-94
2023/06/14 00:36:12;;;;;;;9.60;2.60;;;16.00;80.40;;;;;;7385698;19;20023;-93
2023/06/14 00:38:39;;;;;;;7.47;3.78;;;16.00;81.20;;;;;;7383714;19;20764;-94
2023/06/14 00:41:06;;;;;;;7.28;3.60;;;15.90;83.20;;;;;;7386566;19;20009;-94
2023/06/14 00:43:36;;;;;;;8.48;2.72;;;15.80;84.50;;;;;;7386481;19;20018;-93
2023/06/14 00:46:23;;;;;;;6.38;3.38;;;15.80;86.60;;;;;;7383960;19;20014;-92
2023/06/14 00:48:51;;;;;;;6.20;2.40;;;15.70;87.90;;;;;;7381546;19;20035;-94
2023/06/14 00:51:24;;;;;;;13.10;3.70;;;15.70;89.50;;;;;;7381765;19;20015;-93
2023/06/14 00:54:01;;;;;;;7.93;3.17;;;15.70;90.00;;;;;;7386154;19;20049;-92
2023/06/14 00:56:28;;;;;;;5.18;1.90;;;15.70;91.10;;;;;;7386414;19;20023;-93
2023/06/14 00:58:56;;;;;;;6.68;2.30;;;15.60;91.50;;;;;;7382873;19;20074;-93
2023/06/14 01:01:24;;;;;;;4.45;2.05;;;15.60;92.50;;;;;;7383936;19;20018;-92
2023/06/14 01:03:51;;;;;;;7.22;2.50;;;15.60;93.00;;;;;;7385077;19;20018;-93
2023/06/14 01:06:41;;;;;;;8.77;2.85;;;15.50;93.90;;;;;;7383193;19;20018;-93
2023/06/14 01:09:21;;;;;;;7.65;2.53;;;15.50;94.70;;;;;;7385221;19;20832;-93
2023/06/14 01:12:04;;;;;;;7.22;2.65;;;15.50;95.60;;;;;;7393944;19;20019;-93
2023/06/14 01:14:48;;;;;;;5.63;2.80;;;15.50;95.50;;;;;;7389439;19;20633;-94
2023/06/14 01:17:17;;;;;;;4.15;2.20;;;15.40;96.20;;;;;;7393517;19;20581;-92
2023/06/14 01:19:45;;;;;;;8.23;2.58;;;15.40;97.00;;;;;;7385090;19;20070;-92
2023/06/14 01:22:15;;;;;;;5.82;2.60;;;15.40;97.60;;;;;;7388434;19;20021;-92
2023/06/14 01:24:45;;;;;;;4.85;2.28;;;15.30;98.30;;;;;;7384901;19;20033;-92
2023/06/14 01:27:15;;;;;;;5.35;3.13;;;15.30;98.90;;;;;;7388891;19;20680;-93
2023/06/14 01:29:45;;;;;;;4.97;2.47;;;15.30;99.60;;;;;;7379500;19;20033;-94
2023/06/14 01:32:25;;;;;;;3.83;2.35;;;15.30;99.90;;;;;;7385363;19;20070;-91
2023/06/14 01:34:53;;;;;;;7.15;3.80;;;15.20;99.90;;;;;;7382363;19;20025;-92
2023/06/14 01:37:24;;;;;;;7.53;2.63;;;15.10;99.90;;;;;;7387511;19;20029;-93
2023/06/14 01:39:53;;;;;;;5.63;2.47;;;15.10;99.90;;;;;;7382595;19;20018;-93
2023/06/14 01:42:23;;;;;;;5.53;2.33;;;15.10;99.90;;;;;;7384737;19;20010;-93
2023/06/14 01:44:53;;;;;;;5.75;2.10;;;15.00;99.90;;;;;;7385970;19;21286;-91
2023/06/14 01:47:24;;;;;;;8.88;3.33;;;15.00;99.90;;;;;;7399533;19;20018;-92
2023/06/14 01:49:51;;;;;;;5.20;2.70;;;14.90;99.90;;;;;;7401521;19;20094;-92
2023/06/14 01:52:19;;;;;;;7.25;2.55;;;15.00;99.90;;;;;;7394711;19;20025;-93
2023/06/14 01:54:47;;;;;;;4.45;2.40;;;15.00;99.90;;;;;;7388259;19;20025;-93
2023/06/14 01:57:17;;;;;;;4.55;2.00;;;14.90;99.90;;;;;;7385778;19;20015;-92
2023/06/14 01:59:48;;;;;;;5.97;3.38;;;14.90;99.90;;;;;;7384040;19;20590;-94
2023/06/14 02:02:15;;;;;;;4.65;2.63;;;14.80;99.90;;;;;;7386579;19;20030;-94
2023/06/14 02:04:42;;;;;;;6.07;2.47;;;14.80;99.90;;;;;;7376467;19;20298;-94
2023/06/14 02:07:09;;;;;;;6.18;2.35;;;14.80;99.90;;;;;;7381741;19;20070;-93
2023/06/14 02:09:36;;;;;;;5.88;2.38;;;14.80;99.90;;;;;;7379221;19;20023;-93
2023/06/14 02:12:03;;;;;;;4.93;2.45;;;14.80;99.90;;;;;;7383086;19;20014;-94
2023/06/14 02:14:33;;;;;;;5.88;3.08;;;14.80;99.90;;;;;;7384130;19;20070;-94
2023/06/14 02:17:06;;;;;;;6.60;2.42;;;14.70;99.90;;;;;;7382032;19;20026;-93
2023/06/14 02:19:33;;;;;;;6.15;2.45;;;14.70;99.90;;;;;;7382911;19;20011;-92
2023/06/14 02:22:00;;;;;;;7.10;2.65;;;14.60;99.90;;;;;;7384358;19;21858;-92
2023/06/14 02:24:29;;;;;;;7.20;2.80;;;14.60;99.90;;;;;;7384672;19;20018;-93
2023/06/14 02:26:56;;;;;;;6.93;2.20;;;14.60;99.90;;;;;;7388273;19;20024;-93
2023/06/14 02:29:22;;;;;;;7.40;2.70;;;14.60;99.90;;;;;;7383487;19;20009;-93
2023/06/14 02:31:53;;;;;;;6.75;2.65;;;14.50;99.90;;;;;;7388593;19;20018;-93
2023/06/14 02:34:21;;;;;;;6.95;2.45;;;14.50;99.90;;;;;;7386703;19;20021;-93
2023/06/14 02:36:49;;;;;;;6.10;2.70;;;14.50;99.90;;;;;;7383090;19;20021;-93
2023/06/14 02:39:17;;;;;;;5.80;2.45;;;14.50;99.90;;;;;;7386368;19;20045;-93
2023/06/14 02:41:45;;;;;;;9.18;2.75;;;14.40;99.90;;;;;;7385806;19;20021;-93
2023/06/14 02:44:13;;;;;;;7.47;3.03;;;14.40;99.90;;;;;;7382506;19;20015;-93
2023/06/14 02:46:43;;;;;;;5.20;2.33;;;14.40;99.90;;;;;;7381360;19;20473;-93
2023/06/14 02:49:11;;;;;;;5.90;3.10;;;14.40;99.90;;;;;;7383779;19;20018;-92
2023/06/14 02:51:38;;;;;;;7.10;3.03;;;14.30;99.90;;;;;;7381650;19;20018;-92
2023/06/14 02:54:05;;;;;;;4.10;2.28;;;14.20;99.90;;;;;;7380334;19;20800;-93
2023/06/14 02:56:40;;;;;;;4.22;2.50;;;14.30;99.90;;;;;;7376942;19;20022;-93
2023/06/14 02:59:11;;;;;;;5.70;2.90;;;14.20;99.90;;;;;;7385318;19;20078;-93
2023/06/14 03:01:40;;;;;;;4.22;2.55;;;14.20;99.90;;;;;;7376190;19;20023;-92
2023/06/14 03:04:25;;;;;;;6.43;2.67;;;14.20;99.90;;;;;;7382523;19;20018;-93
2023/06/14 03:06:53;;;;;;;4.10;2.35;;;14.20;99.90;;;;;;7385559;19;20057;-92
2023/06/14 03:09:22;;;;;;;7.93;3.60;;;14.20;99.90;;;;;;7381561;19;20025;-92
2023/06/14 03:11:49;;;;;;;5.93;2.70;;;14.10;99.90;;;;;;7383632;19;20039;-92
2023/06/14 03:14:18;;;;;;;8.60;2.90;;;14.20;99.90;;;;;;7384075;19;20085;-93
2023/06/14 03:16:56;;;;;;;7.35;2.25;;;14.10;99.90;;;;;;7383937;19;20023;-91
2023/06/14 03:19:27;;;;;;;7.55;2.95;;;14.20;99.90;;;;;;7381074;19;20018;-93
2023/06/14 03:21:57;;;;;;;3.97;2.20;;;14.10;99.90;;;;;;7383965;19;20022;-93
2023/06/14 03:24:31;;;;;;;8.07;2.80;;;14.10;99.90;;;;;;7383857;19;20027;-92
2023/06/14 03:27:18;;;;;;;7.50;2.75;;;14.10;99.90;;;;;;7384180;19;20053;-93
2023/06/14 03:30:10;;;;;;;5.03;2.33;;;14.10;99.90;;;;;;7382283;19;20027;-94
2023/06/14 03:33:00;;;;;;;5.57;2.95;;;14.10;99.90;;;;;;7386349;19;20023;-92
2023/06/14 03:35:48;;;;;;;7.28;2.75;;;14.10;99.90;;;;;;7382852;19;20014;-93
2023/06/14 03:38:35;;;;;;;8.20;4.00;;;14.10;99.90;;;;;;7386672;19;20010;-94
2023/06/14 03:41:26;;;;;;;7.95;3.50;;;14.10;99.90;;;;;;7386257;19;20018;-92
2023/06/14 03:44:18;;;;;;;5.78;2.63;;;14.10;99.90;;;;;;7400119;19;20106;-90
2023/06/14 03:47:05;;;;;;;6.15;2.90;;;14.10;99.90;;;;;;7406046;19;20010;-89
2023/06/14 03:49:39;;;;;;;4.90;3.03;;;14.20;99.90;;;;;;7394262;19;20023;-93
2023/06/14 03:52:26;;;;;;;5.60;2.90;;;14.00;99.90;;;;;;7392091;19;20019;-93
2023/06/14 03:55:13;;;;;;;5.40;3.40;;;14.10;99.90;;;;;;7396305;19;20014;-93
2023/06/14 03:57:41;;;;;;;5.72;2.78;;;14.10;99.90;;;;;;7386275;19;20025;-93
2023/06/14 04:00:12;;;;;;;9.25;3.35;;;14.10;99.90;;;;;;7388105;19;20014;-93
2023/06/14 04:02:41;;;;;;;7.20;2.95;;;14.10;99.90;;;;;;7381794;19;20018;-93
2023/06/14 04:05:10;;;;;;;6.68;2.78;;;14.10;99.90;;;;;;7384686;19;20022;-93
2023/06/14 04:07:44;;;;;;;5.80;3.10;;;14.10;99.90;;;;;;7385970;19;20026;-93
2023/06/14 04:10:24;;;;;;;6.60;2.78;;;14.10;99.90;;;;;;7386577;19;20022;-93
2023/06/14 04:12:54;;;;;;;5.05;3.13;;;14.10;99.90;;;;;;7388056;19;20475;-92
2023/06/14 04:15:23;;;;;;;6.07;3.10;;;14.10;99.90;;;;;;7389425;19;20025;-93
2023/06/14 04:17:57;;;;;;;5.53;3.35;;;14.10;99.90;;;;;;7390625;19;20014;-92
2023/06/14 04:20:24;;;;;;;5.35;2.97;;;14.20;99.90;;;;;;7388827;19;20022;-90
2023/06/14 04:22:52;;;;;;;8.18;3.42;;;14.20;99.90;;;;;;7391013;19;20014;-92
2023/06/14 04:25:22;;;;;;;6.38;3.35;;;14.20;99.90;;;;;;7389628;19;20078;-92
2023/06/14 04:27:49;;;;;;;8.18;3.30;;;14.20;99.90;;;;;;7391366;19;20678;-94
2023/06/14 04:30:25;;;;;;;6.47;3.22;;;14.30;99.90;;;;;;7382297;19;20006;-92
2023/06/14 04:32:53;;;;;;;5.63;2.78;;;14.30;99.90;;;;;;7381908;19;20045;-93
2023/06/14 04:35:23;;;;;;;5.68;3.72;;;14.30;99.90;;;;;;7382214;19;20030;-94
2023/06/14 04:37:53;;;;;;;8.75;3.75;;;14.40;99.90;;;;;;7380335;19;20014;-94
2023/06/14 04:40:21;;;;;;;8.98;3.53;;;14.40;99.90;;;;;;7378355;19;20039;-94
2023/06/14 04:42:50;;;;;;;8.32;4.32;;;14.50;99.90;;;;;;7374261;19;20018;-93
2023/06/14 04:45:19;;;;;;;7.15;3.67;;;14.60;99.90;;;;;;7374862;19;20021;-93
2023/06/14 04:47:47;;;;;;;7.60;3.30;;;14.60;99.90;;;;;;7369826;19;20018;-92
2023/06/14 04:50:17;;;;;;;5.25;3.50;;;14.70;99.90;;;;;;7365073;19;20018;-91
2023/06/14 04:52:45;;;;;;;8.10;3.65;;;14.80;99.90;;;;;;7371703;19;20029;-89
2023/06/14 04:55:13;;;;;;;9.63;3.80;;;14.80;99.90;;;;;;7366553;19;20029;-90
2023/06/14 04:57:40;;;;;;;7.40;3.35;;;14.90;99.90;;;;;;7371430;19;20019;-90
2023/06/14 05:00:11;;;;;;;6.78;3.50;;;15.00;99.90;;;;;;7374234;19;20018;-91
2023/06/14 05:02:38;;;;;;;9.65;4.28;;;15.00;99.90;;;;;;7371141;19;20617;-89
2023/06/14 05:05:06;;;;;;;5.55;3.60;;;15.10;99.90;;;;;;7367373;19;20606;-89
2023/06/14 05:07:34;;;;;;;7.10;3.15;;;15.20;99.90;;;;;;7366637;19;20014;-89
2023/06/14 05:10:02;;;;;;;6.28;3.10;;;15.60;99.90;;;;;;7373503;19;20019;-89
2023/06/14 05:12:29;;;;;;;8.95;5.40;;;16.00;99.90;;;;;;7370529;19;20030;-89
2023/06/14 05:14:58;;;;;;;10.05;4.07;;;16.20;99.90;;;;;;7374296;19;20014;-89
2023/06/14 05:17:27;;;;;;;12.10;8.38;;;16.50;99.90;;;;;;7372993;19;20030;-90
2023/06/14 05:19:58;;;;;;;9.85;4.63;;;16.80;99.90;;;;;;7370636;19;21519;-90
2023/06/14 05:22:25;;;;;;;12.38;10.10;;;17.00;99.90;;;;;;7364644;19;20018;-87
2023/06/14 05:24:52;;;;;;;4.95;3.10;;;17.30;99.90;;;;;;7367541;19;20010;-88
2023/06/14 05:27:24;;;;;;;8.85;3.42;;;17.40;99.90;;;;;;7369396;19;20022;-89
2023/06/14 05:29:55;;;;;;;9.43;3.95;;;17.70;99.90;;;;;;7365881;19;20022;-87
2023/06/14 05:32:23;;;;;;;8.88;3.92;;;17.80;99.90;;;;;;7369813;19;20018;-86
2023/06/14 05:34:53;;;;;;;4.90;2.60;;;18.00;99.90;;;;;;7368785;19;20041;-91
2023/06/14 05:37:20;;;;;;;9.90;4.03;;;18.30;99.90;;;;;;7370599;19;20019;-86
2023/06/14 05:39:48;;;;;;;15.40;7.30;;;18.40;99.90;;;;;;7370450;19;20074;-89
2023/06/14 05:42:24;;;;;;;14.63;11.13;;;18.50;99.90;;;;;;7370080;19;20032;-87
2023/06/14 05:44:52;;;;;;;6.95;4.80;;;18.60;99.90;;;;;;7369535;19;20018;-86
2023/06/14 05:47:19;;;;;;;10.85;5.43;;;18.70;99.90;;;;;;7369650;19;20021;-87
2023/06/14 05:49:46;;;;;;;18.92;9.05;;;18.90;99.90;;;;;;7364417;19;20030;-88
2023/06/14 05:52:14;;;;;;;17.08;13.05;;;19.00;99.90;;;;;;7370186;19;20022;-88
2023/06/14 05:54:41;;;;;;;10.00;6.85;;;19.20;99.90;;;;;;7374767;19;20018;-86
2023/06/14 05:57:07;;;;;;;11.50;9.55;;;19.30;99.90;;;;;;7377423;19;20040;-87
2023/06/14 05:59:34;;;;;;;9.50;4.43;;;19.40;99.90;;;;;;7378799;19;20026;-88
2023/06/14 06:02:00;;;;;;;7.07;4.80;;;19.50;99.90;;;;;;7375788;19;20867;-88
2023/06/14 06:04:27;;;;;;;8.45;5.60;;;19.70;99.90;;;;;;7379268;19;20094;-88
2023/06/14 06:06:55;;;;;;;11.30;7.60;;;19.70;99.90;;;;;;7377930;19;20018;-88
2023/06/14 06:09:22;;;;;;;5.50;2.88;;;19.90;99.90;;;;;;7377289;19;20014;-88
2023/06/14 06:11:48;;;;;;;6.03;4.10;;;19.90;99.90;;;;;;7370730;19;20510;-85
2023/06/14 06:14:15;;;;;;;5.85;3.35;;;20.10;99.90;;;;;;7365076;19;20025;-88
2023/06/14 06:16:41;;;;;;;9.68;6.65;;;20.00;99.90;;;;;;7372743;19;20487;-86
2023/06/14 06:19:07;;;;;;;4.68;2.65;;;20.10;99.90;;;;;;7376372;19;20010;-85
2023/06/14 06:21:34;;;;;;;7.22;2.90;;;20.20;99.90;;;;;;7369638;19;20034;-83
2023/06/14 06:24:05;;;;;;;6.53;2.88;;;20.10;99.90;;;;;;7381992;19;20100;-87
2023/06/14 06:26:33;;;;;;;10.25;8.90;;;20.40;99.90;;;;;;7371089;19;20014;-88
2023/06/14 06:28:59;;;;;;;11.07;4.78;;;20.50;99.80;;;;;;7378998;19;20063;-83
2023/06/14 06:31:27;;;;;;;5.32;2.97;;;20.70;99.50;;;;;;7368668;19;20048;-83
2023/06/14 06:33:54;;;;;;;9.20;4.78;;;20.90;98.60;;;;;;7376437;19;20015;-84
2023/06/14 06:36:21;;;;;;;10.48;9.00;;;21.00;98.00;;;;;;7376450;19;20010;-83
2023/06/14 06:38:49;;;;;;;9.57;7.55;;;21.20;97.00;;;;;;7373396;19;20041;-83
2023/06/14 06:41:17;;;;;;;5.88;2.53;;;21.40;96.20;;;;;;7374342;19;20442;-82
2023/06/14 06:43:43;;;;;;;5.43;4.15;;;21.50;95.50;;;;;;7374964;19;20657;-84
2023/06/14 06:46:12;;;;;;;8.80;4.07;;;21.60;94.40;;;;;;7373985;19;20010;-84
2023/06/14 06:48:39;;;;;;;10.73;5.50;;;21.40;93.70;;;;;;7375347;19;20022;-83
2023/06/14 06:51:07;;;;;;;4.88;2.83;;;21.60;93.10;;;;;;7364585;19;20051;-83
2023/06/14 06:53:33;;;;;;;3.85;2.00;;;21.80;92.00;;;;;;7365564;19;20086;-83
2023/06/14 06:56:00;;;;;;;4.50;2.20;;;21.80;91.20;;;;;;7368349;19;20026;-84
2023/06/14 06:58:29;;;;;;;5.82;2.83;;;21.90;91.00;;;;;;7371669;19;20015;-83
2023/06/14 07:00:56;;;;;;;9.20;5.50;;;22.10;90.40;;;;;;7373791;19;20048;-84
2023/06/14 07:03:23;;;;;;;5.72;2.38;;;22.30;89.60;;;;;;7369735;19;20030;-83
2023/06/14 07:05:49;;;;;;;5.22;3.45;;;22.10;86.90;;;;;;7367869;19;20022;-83
2023/06/14 07:08:16;;;;;;;10.02;6.75;;;22.20;86.30;;;;;;7373400;19;20492;-83
2023/06/14 07:10:43;;;;;;;3.65;2.05;;;22.60;85.70;;;;;;7370945;19;20026;-83
2023/06/14 07:13:09;;;;;;;3.55;2.22;;;23.00;86.00;;;;;;7370964;19;20381;-84
2023/06/14 07:15:36;;;;;;;5.40;3.08;;;22.70;80.50;;;;;;7373243;19;20557;-83
2023/06/14 07:18:02;;;;;;;8.07;2.53;;;22.80;76.90;;;;;;7371722;19;20030;-83
2023/06/14 07:20:30;;;;;;;3.47;2.25;;;22.70;76.30;;;;;;7372446;19;20015;-83
2023/06/14 07:22:57;;;;;;;11.25;9.45;;;22.80;75.40;;;;;;7371350;19;20014;-83
2023/06/14 07:25:23;;;;;;;10.82;9.07;;;23.00;75.60;;;;;;7370280;19;20367;-83
2023/06/14 07:27:54;;;;;;;3.55;2.20;;;23.10;73.90;;;;;;7372723;19;20028;-82
2023/06/14 07:30:25;;;;;;;6.60;3.50;;;23.30;72.30;;;;;;7373131;19;20014;-81
2023/06/14 07:32:53;;;;;;;5.63;1.98;;;23.50;72.70;;;;;;7370491;19;20087;-83
2023/06/14 07:35:19;;;;;;;6.63;2.30;;;23.40;71.20;;;;;;7373538;19;20026;-84
2023/06/14 07:37:46;;;;;;;5.32;2.05;;;23.40;69.10;;;;;;7369359;19;20019;-82
2023/06/14 07:40:13;;;;;;;8.10;3.45;;;23.50;69.00;;;;;;7370086;19;20752;-83
2023/06/14 07:42:40;;;;;;;7.55;2.90;;;23.60;68.70;;;;;;7374732;19;20022;-84
2023/06/14 07:45:07;;;;;;;12.77;7.60;;;23.50;67.80;;;;;;7372759;19;20693;-83
2023/06/14 07:47:33;;;;;;;6.55;2.70;;;23.60;67.50;;;;;;7368885;19;20022;-82
2023/06/14 07:50:01;;;;;;;9.77;2.83;;;23.80;67.30;;;;;;7373919;19;20799;-83
2023/06/14 07:52:29;;;;;;;3.90;2.65;;;24.00;65.80;;;;;;7368662;19;20379;-83
2023/06/14 07:54:56;;;;;;;5.68;3.97;;;24.00;65.00;;;;;;7373194;19;20019;-83
2023/06/14 07:57:23;;;;;;;4.95;3.35;;;24.10;63.80;;;;;;7372975;19;20014;-83
2023/06/14 07:59:52;;;;;;;7.60;2.72;;;24.30;63.30;;;;;;7370609;19;20017;-83
2023/06/14 08:02:19;;;;;;;6.00;1.80;;;24.50;61.40;;;;;;7368767;19;20018;-83
2023/06/14 08:04:48;;;;;;;4.72;2.20;;;24.40;61.60;;;;;;7363170;19;20125;-83
2023/06/14 08:07:21;;;;;;;7.80;4.15;;;24.10;61.40;;;;;;7363196;19;20501;-83
2023/06/14 08:09:47;;;;;;;4.13;2.45;;;24.20;62.90;;;;;;7367219;19;20041;-83
2023/06/14 08:12:13;;;;;;;4.35;2.10;;;24.40;61.10;;;;;;7369795;19;20014;-83
2023/06/14 08:14:40;;;;;;;4.50;2.30;;;24.70;60.90;;;;;;7369271;19;20281;-83
2023/06/14 08:17:06;;;;;;;5.18;2.10;;;24.50;59.90;;;;;;7355869;19;20354;-80
2023/06/14 08:19:32;;;;;;;6.50;2.03;;;24.80;60.10;;;;;;7360458;19;20383;-80
2023/06/14 08:21:59;;;;;;;4.88;2.03;;;24.80;58.40;;;;;;7368587;19;20014;-80
2023/06/14 08:24:29;;;;;;;5.75;2.47;;;24.70;58.20;;;;;;7364911;19;20018;-80
2023/06/14 08:27:00;;;;;;;4.97;2.25;;;25.30;58.50;;;;;;7370942;19;20018;-80
2023/06/14 08:29:29;;;;;;;5.28;1.48;;;25.50;56.60;;;;;;7359873;19;20022;-80
2023/06/14 08:31:55;;;;;;;5.30;1.70;;;25.90;55.70;;;;;;7367767;19;20510;-81
2023/06/14 09:32:18;;;;;;;4.53;2.78;;;27.90;47.00;;;;;;7373287;19;20079;-81
2023/06/14 09:34:47;;;;;;;3.63;1.88;;;27.80;46.00;;;;;;7373095;19;20412;-82
2023/06/14 09:37:13;;;;;;;7.38;2.83;;;27.90;46.60;;;;;;7376238;19;20022;-81
2023/06/14 09:39:52;;;;;;;5.90;2.53;;;28.10;45.50;;;;;;7374086;19;20387;-83
2023/06/14 09:42:19;;;;;;;5.03;1.83;;;28.30;45.80;;;;;;7374148;19;20027;-80
2023/06/14 09:44:48;;;;;;;3.15;1.70;;;28.30;45.30;;;;;;7373747;19;20030;-81
2023/06/14 09:47:16;;;;;;;5.00;1.70;;;28.10;44.10;;;;;;7381075;19;20015;-80
2023/06/14 09:49:43;;;;;;;5.15;2.00;;;28.10;43.90;;;;;;7375215;19;20050;-80
2023/06/14 09:52:19;;;;;;;3.45;1.55;;;27.90;43.90;;;;;;7381326;19;20422;-80
2023/06/14 09:54:48;;;;;;;3.85;1.70;;;28.10;44.90;;;;;;7378810;19;20029;-81
2023/06/14 09:57:20;;;;;;;2.92;1.73;;;27.90;44.20;;;;;;7377616;19;20081;-81
2023/06/14 09:59:47;;;;;;;4.85;1.30;;;27.70;44.00;;;;;;7382357;19;20035;-83
2023/06/14 10:02:34;;;;;;;3.58;1.42;;;28.10;44.40;;;;;;7380847;19;20487;-80
2023/06/14 10:05:07;;;;;;;4.43;2.38;;;28.60;43.90;;;;;;7375772;19;20023;-82
2023/06/14 10:07:47;;;;;;;5.60;1.85;;;28.50;44.20;;;;;;7373200;19;20018;-82
2023/06/14 10:10:14;;;;;;;3.45;1.63;;;28.70;44.10;;;;;;7374419;19;20023;-82
2023/06/14 10:12:43;;;;;;;5.88;2.30;;;28.40;43.40;;;;;;7379531;19;20030;-81
2023/06/14 10:15:18;;;;;;;5.70;1.67;;;28.60;43.90;;;;;;7374849;19;20517;-82
2023/06/14 10:17:57;;;;;;;1.58;1.35;;;28.30;42.60;;;;;;7375124;19;20837;-83
2023/06/14 10:20:51;;;;;;;9.43;2.88;;;28.30;43.40;;;;;;7371083;19;20029;-82
2023/06/14 10:23:24;;;;;;;3.13;1.50;;;28.90;42.30;;;;;;7373424;19;20018;-83
2023/06/14 10:25:55;;;;;;;5.30;1.88;;;28.90;41.90;;;;;;7373323;19;20015;-83
2023/06/14 10:28:24;;;;;;;7.50;2.65;;;28.80;41.20;;;;;;7377358;19;20041;-83
2023/06/14 10:31:10;;;;;;;3.42;1.17;;;29.00;41.40;;;;;;7379743;19;20022;-83
2023/06/14 10:33:55;;;;;;;5.28;1.33;;;29.20;40.50;;;;;;7377266;19;20025;-83
2023/06/14 10:36:36;;;;;;;4.05;1.42;;;28.70;39.60;;;;;;7377603;19;20093;-83
2023/06/14 10:39:15;;;;;;;9.00;5.93;;;28.90;41.10;;;;;;7376033;19;20021;-82
2023/06/14 10:41:42;;;;;;;3.35;1.88;;;29.10;41.70;;;;;;7377862;19;20018;-83
2023/06/14 10:44:14;;;;;;;4.13;1.38;;;29.20;40.80;;;;;;7381905;19;20453;-81
2023/06/14 10:46:46;;;;;;;2.65;1.38;;;29.40;39.50;;;;;;7380879;19;20042;-81
2023/06/14 10:49:19;;;;;;;3.20;1.35;;;29.10;39.80;;;;;;7372560;19;20964;-82
2023/06/14 10:51:50;;;;;;;5.03;1.50;;;29.00;39.40;;;;;;7376610;19;20124;-82
2023/06/14 10:54:16;;;;;;;3.10;1.60;;;28.60;40.10;;;;;;7365593;19;20035;-81
2023/06/14 10:56:48;;;;;;;8.32;1.38;;;29.50;40.50;;;;;;7363039;19;20014;-81
2023/06/14 10:59:20;;;;;;;3.08;1.30;;;29.50;40.10;;;;;;7379295;19;20026;-82
2023/06/14 11:02:01;;;;;;;4.57;1.52;;;29.20;39.50;;;;;;7374375;19;20022;-82
2023/06/14 11:04:56;;;;;;;3.22;1.60;;;29.30;39.30;;;;;;7381433;19;20010;-82
2023/06/14 11:07:34;;;;;;;3.58;1.63;;;29.00;39.50;;;;;;7378580;19;20022;-81
2023/06/14 11:10:19;;;;;;;3.53;1.65;;;29.20;39.20;;;;;;7379363;19;20041;-81
2023/06/14 11:12:52;;;;;;;3.78;1.75;;;29.30;40.20;;;;;;7379418;19;20019;-81
2023/06/14 11:15:18;;;;;;;4.97;1.63;;;29.50;40.10;;;;;;7378676;19;20022;-82
2023/06/14 11:17:57;;;;;;;4.07;1.10;;;29.90;39.50;;;;;;7377372;19;20394;-82
2023/06/14 11:20:30;;;;;;;3.85;1.60;;;29.40;38.90;;;;;;7377273;19;20705;-82
2023/06/14 11:22:58;;;;;;;4.93;1.33;;;29.10;39.70;;;;;;7378845;19;20050;-81
2023/06/14 11:25:26;;;;;;;4.75;1.67;;;29.10;39.60;;;;;;7378828;19;20026;-81
2023/06/14 11:27:53;;;;;;;2.63;1.75;;;29.20;39.80;;;;;;7378073;19;20101;-81
2023/06/14 11:30:21;;;;;;;4.45;1.20;;;29.10;39.10;;;;;;7371546;19;22211;-81
2023/06/14 11:32:53;;;;;;;3.50;1.30;;;29.00;39.10;;;;;;7365392;19;20463;-81
2023/06/14 11:35:23;;;;;;;3.55;1.20;;;29.20;40.10;;;;;;7373104;19;20491;-81
2023/06/14 11:37:57;;;;;;;3.03;1.52;;;29.60;39.60;;;;;;7378197;19;20015;-81
2023/06/14 11:40:28;;;;;;;3.80;1.00;;;29.50;40.10;;;;;;7359135;19;20018;-81
2023/06/14 11:43:02;;;;;;;3.15;1.40;;;28.80;38.90;;;;;;7358763;19;20022;-81
2023/06/14 11:45:30;;;;;;;5.90;1.40;;;28.90;39.50;;;;;;7370441;19;20018;-80
2023/06/14 11:47:57;;;;;;;3.53;1.23;;;29.10;39.80;;;;;;7372632;19;20011;-81
2023/06/14 11:50:25;;;;;;;4.05;1.38;;;28.90;39.80;;;;;;7379312;19;20010;-81
2023/06/14 11:53:10;;;;;;;3.80;1.38;;;28.60;39.50;;;;;;7377439;19;20010;-81
2023/06/14 11:55:40;;;;;;;3.33;1.15;;;28.80;39.70;;;;;;7367944;19;20101;-82
2023/06/14 11:58:06;;;;;;;6.00;1.70;;;29.00;39.70;;;;;;7365879;19;20550;-81
2023/06/14 12:00:40;;;;;;;4.55;1.65;;;29.70;40.00;;;;;;7368768;19;20110;-81
2023/06/14 12:03:06;;;;;;;2.87;1.37;;;29.70;39.50;;;;;;7374510;19;20026;-81
2023/06/14 12:05:34;;;;;;;4.07;1.10;;;29.20;39.20;;;;;;7373922;19;20018;-82
2023/06/14 12:08:03;;;;;;;4.10;1.50;;;28.90;39.60;;;;;;7378696;19;20609;-83
2023/06/14 12:10:41;;;;;;;4.43;1.52;;;28.80;39.60;;;;;;7375344;19;20018;-83
2023/06/14 12:13:08;;;;;;;3.22;1.40;;;29.00;40.10;;;;;;7379272;19;20022;-81
2023/06/14 12:15:35;;;;;;;2.38;1.20;;;29.50;40.30;;;;;;7373651;19;20018;-83
2023/06/14 12:18:06;;;;;;;2.83;1.40;;;29.10;39.50;;;;;;7376839;19;20102;-82
2023/06/14 12:20:33;;;;;;;5.20;1.23;;;29.50;40.20;;;;;;7372457;19;21398;-83
2023/06/14 12:23:01;;;;;;;4.18;1.38;;;29.90;39.60;;;;;;7376573;19;20026;-82
2023/06/14 12:25:36;;;;;;;4.35;1.60;;;29.70;39.60;;;;;;7372066;19;20057;-82
2023/06/14 12:28:07;;;;;;;3.38;1.60;;;29.90;39.10;;;;;;7374175;19;20014;-80
2023/06/14 12:30:38;;;;;;;2.90;1.42;;;30.20;39.40;;;;;;7364496;19;20045;-81
2023/06/14 12:33:05;;;;;;;3.97;1.20;;;29.80;39.10;;;;;;7364206;19;20071;-82
2023/06/14 12:35:31;;;;;;;4.97;1.85;;;30.20;39.10;;;;;;7364870;19;20033;-81
2023/06/14 12:37:58;;;;;;;5.13;1.40;;;29.40;38.70;;;;;;7375636;19;20736;-82
2023/06/14 12:40:26;;;;;;;8.52;1.70;;;29.90;39.00;;;;;;7374346;19;20637;-82
2023/06/14 12:42:52;;;;;;;5.65;1.30;;;29.30;38.80;;;;;;7376045;19;20018;-82
2023/06/14 12:45:18;;;;;;;4.10;1.33;;;29.50;38.60;;;;;;7374012;19;20029;-84
2023/06/14 12:47:47;;;;;;;8.30;1.70;;;30.00;38.70;;;;;;7372565;19;20023;-82
2023/06/14 12:50:13;;;;;;;2.55;1.50;;;30.30;39.10;;;;;;7375564;19;20063;-83
2023/06/14 12:52:42;;;;;;;7.20;1.60;;;29.80;38.40;;;;;;7370868;19;20060;-82
2023/06/14 12:55:08;;;;;;;4.13;1.38;;;29.60;38.40;;;;;;7372770;19;20018;-83
2023/06/14 12:57:36;;;;;;;2.55;1.20;;;29.20;38.60;;;;;;7372085;19;20022;-82
2023/06/14 13:00:04;;;;;;;3.55;1.02;;;29.90;39.40;;;;;;7376579;19;20085;-82
2023/06/14 13:02:31;;;;;;;3.63;1.33;;;29.90;38.80;;;;;;7373165;19;20014;-82
2023/06/14 13:04:58;;;;;;;6.05;1.35;;;29.80;38.60;;;;;;7365183;19;20060;-81
2023/06/14 13:07:25;;;;;;;5.05;1.40;;;30.10;38.80;;;;;;7360419;19;20022;-82
2023/06/14 13:09:51;;;;;;;7.80;2.97;;;29.90;39.10;;;;;;7350744;19;20112;-84
2023/06/14 13:12:17;;;;;;;34.53;31.17;;;30.50;39.10;;;;;;7353000;19;20154;-89
2023/06/14 13:14:44;;;;;;;20.05;18.05;;;30.90;38.70;;;;;;7373404;19;20035;-83
2023/06/14 13:17:13;;;;;;;8.50;6.18;;;31.00;38.90;;;;;;7371370;19;20369;-84
2023/06/14 13:19:41;;;;;;;3.75;2.53;;;31.10;37.90;;;;;;7374372;19;20609;-83
2023/06/14 13:22:10;;;;;;;5.72;1.70;;;31.00;37.50;;;;;;7375256;19;20100;-88
2023/06/14 13:24:36;;;;;;;3.90;1.90;;;30.90;38.00;;;;;;7377259;19;20065;-86
2023/06/14 13:27:03;;;;;;;8.05;5.38;;;30.80;37.90;;;;;;7366521;19;20129;-86
2023/06/14 13:29:30;;;;;;;3.17;2.25;;;30.70;37.20;;;;;;7367431;19;20025;-86
2023/06/14 13:31:57;;;;;;;7.28;1.95;;;30.60;37.00;;;;;;7372107;19;20014;-86
2023/06/14 13:34:23;;;;;;;3.17;1.95;;;30.80;37.30;;;;;;7360478;19;20365;-85
2023/06/14 13:36:50;;;;;;;3.53;1.70;;;30.50;37.20;;;;;;7376768;19;20029;-88
2023/06/14 13:39:20;;;;;;;5.13;4.43;;;30.70;37.90;;;;;;7372615;19;20022;-87
2023/06/14 13:41:46;;;;;;;4.47;2.40;;;30.50;37.40;;;;;;7365568;19;20015;-86
2023/06/14 13:44:14;;;;;;;9.48;5.88;;;30.60;37.40;;;;;;7371788;19;20030;-86
2023/06/14 13:46:42;;;;;;;30.45;27.58;;;31.00;37.90;;;;;;7368222;19;20082;-88
2023/06/14 13:49:09;;;;;;;4.43;2.30;;;30.90;37.30;;;;;;7369154;19;20018;-87
2023/06/14 13:51:36;;;;;;;9.55;2.70;;;31.40;38.00;;;;;;7368096;19;20018;-87
2023/06/14 13:54:02;;;;;;;4.05;2.88;;;31.30;37.50;;;;;;7373468;19;20029;-86
2023/06/14 13:56:29;;;;;;;4.30;2.25;;;31.10;37.50;;;;;;7370732;19;20052;-86
2023/06/14 13:58:56;;;;;;;5.45;4.03;;;30.90;37.50;;;;;;7372921;19;20026;-83